createdAt,value
2022-11-21T00:02:17.005Z,-0.58
2022-11-21T00:04:49.017Z,-0.65
2022-11-21T00:07:20.993Z,-0.60
2022-11-21T00:09:52.919Z,-0.56
2022-11-21T00:12:24.880Z,-0.60
2022-11-21T00:14:56.792Z,-0.63
2022-11-21T00:17:28.989Z,-0.64
2022-11-21T00:20:00.873Z,-0.61
2022-11-21T00:22:33.962Z,-0.56
2022-11-21T00:25:07.191Z,-0.54
2022-11-21T00:27:39.527Z,-0.55
2022-11-21T00:30:14.694Z,-0.56
2022-11-21T00:32:45.098Z,-0.61
2022-11-21T00:35:17.030Z,-0.65
2022-11-21T00:37:50.939Z,-0.64
2022-11-21T00:40:22.852Z,-0.66
2022-11-21T00:42:54.790Z,-0.76
2022-11-21T00:45:26.678Z,-0.82
2022-11-21T00:47:58.641Z,-0.91
2022-11-21T00:50:30.603Z,-0.95
2022-11-21T00:53:02.950Z,-0.95
2022-11-21T00:55:37.141Z,-0.97
2022-11-21T00:58:09.134Z,-0.88
2022-11-21T01:00:41.191Z,-0.79
2022-11-21T01:03:13.186Z,-0.72
2022-11-21T01:05:45.175Z,-0.69
2022-11-21T01:08:17.194Z,-0.69
2022-11-21T01:10:49.127Z,-0.69
2022-11-21T01:13:21.218Z,-0.72
2022-11-21T01:15:53.180Z,-0.71
2022-11-21T01:18:25.119Z,-0.73
2022-11-21T01:21:00.000Z,-0.79
2022-11-21T01:23:32.297Z,-0.81
2022-11-21T01:26:09.485Z,-0.81
2022-11-21T01:28:41.705Z,-0.80
2022-11-21T01:31:17.480Z,-0.83
2022-11-21T01:33:49.910Z,-0.86
2022-11-21T01:36:24.555Z,-0.88
2022-11-21T01:38:58.395Z,-0.92
2022-11-21T01:41:33.801Z,-0.98
2022-11-21T01:44:11.948Z,-1.06
2022-11-21T01:46:43.852Z,-1.12
2022-11-21T01:49:19.195Z,-1.20
2022-11-21T01:51:55.256Z,-1.20
2022-11-21T01:54:30.804Z,-1.11
2022-11-21T01:57:07.963Z,-1.08
2022-11-21T01:59:43.947Z,-1.07
2022-11-21T02:02:19.134Z,-1.02
2022-11-21T02:04:51.763Z,-0.99
2022-11-21T02:07:25.764Z,-1.02
2022-11-21T02:10:00.325Z,-1.01
2022-11-21T02:12:39.379Z,-1.03
2022-11-21T02:15:13.400Z,-1.05
2022-11-21T02:17:45.585Z,-1.07
2022-11-21T02:20:19.569Z,-1.12
2022-11-21T02:22:59.853Z,-1.15
2022-11-21T02:25:35.121Z,-1.15
2022-11-21T02:28:10.385Z,-1.15
2022-11-21T02:30:44.007Z,-1.18
2022-11-21T02:33:16.156Z,-1.23
2022-11-21T02:35:56.412Z,-1.25
2022-11-21T02:38:32.931Z,-1.24
2022-11-21T02:41:15.956Z,-1.24
2022-11-21T02:43:52.380Z,-1.25
2022-11-21T02:46:24.311Z,-1.27
2022-11-21T02:48:57.963Z,-1.29
2022-11-21T02:51:29.876Z,-1.35
2022-11-21T02:54:01.793Z,-1.38
2022-11-21T02:56:34.092Z,-1.31
2022-11-21T02:59:06.357Z,-1.32
2022-11-21T03:01:38.318Z,-1.36
2022-11-21T03:04:10.281Z,-1.37
2022-11-21T03:06:42.272Z,-1.34
2022-11-21T03:09:14.236Z,-1.35
2022-11-21T03:11:46.250Z,-1.37
2022-11-21T03:14:18.495Z,-1.36
2022-11-21T03:16:50.381Z,-1.35
2022-11-21T03:19:22.293Z,-1.35
2022-11-21T03:21:54.281Z,-1.34
2022-11-21T03:24:26.595Z,-1.35
2022-11-21T03:26:59.057Z,-1.38
2022-11-21T03:29:30.940Z,-1.40
2022-11-21T03:32:02.953Z,-1.43
2022-11-21T03:34:34.893Z,-1.50
2022-11-21T03:37:07.164Z,-1.55
2022-11-21T03:39:39.075Z,-1.59
2022-11-21T03:42:10.967Z,-1.61
2022-11-21T03:44:43.056Z,-1.64
2022-11-21T03:47:14.964Z,-1.66
2022-11-21T03:49:46.857Z,-1.63
2022-11-21T03:52:19.108Z,-1.62
2022-11-21T03:54:51.112Z,-1.67
2022-11-21T03:57:23.075Z,-1.70
2022-11-21T03:59:54.987Z,-1.64
2022-11-21T04:02:27.024Z,-1.65
2022-11-21T04:04:58.939Z,-1.61
2022-11-21T04:07:31.143Z,-1.54
2022-11-21T04:10:03.071Z,-1.53
2022-11-21T04:12:35.012Z,-1.56
2022-11-21T04:15:13.151Z,-1.61
2022-11-21T04:17:46.052Z,-1.60
2022-11-21T04:20:19.049Z,-1.58
2022-11-21T04:22:50.928Z,-1.56
2022-11-21T04:25:22.813Z,-1.53
2022-11-21T04:27:56.979Z,-1.53
2022-11-21T04:30:29.818Z,-1.53
2022-11-21T04:33:01.779Z,-1.53
2022-11-21T04:35:33.713Z,-1.55
2022-11-21T04:38:05.728Z,-1.59
2022-11-21T04:40:37.774Z,-1.64
2022-11-21T04:43:10.039Z,-1.70
2022-11-21T04:45:41.978Z,-1.75
2022-11-21T04:48:14.016Z,-1.80
2022-11-21T04:50:46.211Z,-1.84
2022-11-21T04:53:18.131Z,-1.83
2022-11-21T04:55:50.087Z,-1.83
2022-11-21T04:58:22.127Z,-1.84
2022-11-21T05:00:54.095Z,-1.90
2022-11-21T05:03:26.106Z,-1.90
2022-11-21T05:05:57.940Z,-1.81
2022-11-21T05:08:29.934Z,-1.77
2022-11-21T05:11:19.813Z,-1.70
2022-11-21T05:13:53.593Z,-1.62
2022-11-21T05:16:25.530Z,-1.54
2022-11-21T05:18:57.418Z,-1.46
2022-11-21T05:21:29.302Z,-1.44
2022-11-21T05:24:01.346Z,-1.44
2022-11-21T05:26:33.231Z,-1.42
2022-11-21T05:29:05.245Z,-1.40
2022-11-21T05:31:37.132Z,-1.40
2022-11-21T05:34:09.303Z,-1.40
2022-11-21T05:36:41.520Z,-1.38
2022-11-21T05:39:13.432Z,-1.38
2022-11-21T05:41:45.678Z,-1.39
2022-11-21T05:44:17.692Z,-1.41
2022-11-21T05:46:49.937Z,-1.44
2022-11-21T05:49:21.977Z,-1.45
2022-11-21T05:51:53.947Z,-1.47
2022-11-21T05:54:26.119Z,-1.50
2022-11-21T05:56:58.642Z,-1.51
2022-11-21T05:59:30.779Z,-1.51
2022-11-21T06:02:20.406Z,-1.53
2022-11-21T06:04:52.371Z,-1.53
2022-11-21T06:07:24.299Z,-1.52
2022-11-21T06:09:56.271Z,-1.54
2022-11-21T06:12:28.160Z,-1.60
2022-11-21T06:15:00.148Z,-1.61
2022-11-21T06:17:31.981Z,-1.62
2022-11-21T06:20:03.949Z,-1.63
2022-11-21T06:22:35.934Z,-1.54
2022-11-21T06:25:08.942Z,-1.49
2022-11-21T06:27:40.886Z,-1.44
2022-11-21T06:30:16.526Z,-1.35
2022-11-21T06:32:52.717Z,-1.29
2022-11-21T06:35:24.813Z,-1.25
2022-11-21T06:37:57.318Z,-1.27
2022-11-21T06:40:29.329Z,-1.25
2022-11-21T06:43:01.498Z,-1.24
2022-11-21T06:45:33.407Z,-1.23
2022-11-21T06:48:05.885Z,-1.24
2022-11-21T06:50:38.822Z,-1.31
2022-11-21T06:53:10.735Z,-1.42
2022-11-21T06:55:42.648Z,-1.47
2022-11-21T06:58:14.584Z,-1.48
2022-11-21T07:00:48.855Z,-1.51
2022-11-21T07:03:21.352Z,-1.51
2022-11-21T07:05:58.603Z,-1.50
2022-11-21T07:08:31.346Z,-1.48
2022-11-21T07:13:59.128Z,-1.48
2022-11-21T07:16:32.557Z,-1.49
2022-11-21T07:19:04.564Z,-1.49
2022-11-21T07:21:36.558Z,-1.50
2022-11-21T07:24:09.752Z,-1.49
2022-11-21T07:26:41.674Z,-1.46
2022-11-21T07:29:13.600Z,-1.37
2022-11-21T07:31:45.512Z,-1.30
2022-11-21T07:34:17.400Z,-1.25
2022-11-21T07:36:49.364Z,-1.20
2022-11-21T07:39:21.971Z,-1.13
2022-11-21T07:41:54.186Z,-1.06
2022-11-21T07:44:26.125Z,-1.04
2022-11-21T07:46:58.445Z,-1.03
2022-11-21T07:49:30.673Z,-0.98
2022-11-21T07:52:02.962Z,-0.95
2022-11-21T07:54:34.925Z,-0.96
2022-11-21T07:57:06.967Z,-0.99
2022-11-21T07:59:38.850Z,-1.01
2022-11-21T08:02:19.814Z,-1.03
2022-11-21T08:04:52.302Z,-1.05
2022-11-21T08:07:25.821Z,-1.09
2022-11-21T08:09:57.869Z,-1.16
2022-11-21T08:12:30.162Z,-1.20
2022-11-21T08:15:02.076Z,-1.22
2022-11-21T08:17:34.476Z,-1.22
2022-11-21T08:20:09.895Z,-1.20
2022-11-21T08:22:43.137Z,-1.18
2022-11-21T08:25:15.025Z,-1.16
2022-11-21T08:27:46.987Z,-1.06
2022-11-21T08:30:19.234Z,-1.03
2022-11-21T08:32:51.200Z,-0.96
2022-11-21T08:35:23.160Z,-0.87
2022-11-21T08:37:59.660Z,-0.75
2022-11-21T08:40:33.459Z,-0.65
2022-11-21T08:43:07.371Z,-0.62
2022-11-21T08:45:40.535Z,-0.57
2022-11-21T08:48:15.623Z,-0.53
2022-11-21T08:50:47.664Z,-0.50
2022-11-21T08:53:19.600Z,-0.47
2022-11-21T08:55:51.566Z,-0.47
2022-11-21T08:58:23.610Z,-0.46
2022-11-21T09:00:55.517Z,-0.45
2022-11-21T09:03:31.075Z,-0.50
2022-11-21T09:06:03.540Z,-0.55
2022-11-21T09:08:35.528Z,-0.58
2022-11-21T09:11:09.157Z,-0.58
2022-11-21T09:13:41.148Z,-0.61
2022-11-21T09:16:32.540Z,-0.60
2022-11-21T09:19:04.687Z,-0.48
2022-11-21T09:21:36.646Z,-0.41
2022-11-21T09:24:09.164Z,-0.38
2022-11-21T09:26:41.164Z,-0.32
2022-11-21T09:29:15.202Z,-0.25
2022-11-21T09:31:47.522Z,-0.18
2022-11-21T09:34:20.174Z,-0.13
2022-11-21T09:36:53.289Z,-0.12
2022-11-21T09:39:25.342Z,-0.11
2022-11-21T09:42:10.631Z,-0.11
2022-11-21T09:44:59.438Z,-0.10
2022-11-21T09:47:33.297Z,-0.10
2022-11-21T09:50:08.521Z,-0.12
2022-11-21T09:52:47.101Z,-0.17
2022-11-21T09:55:26.033Z,-0.18
2022-11-21T09:57:59.300Z,-0.20
2022-11-21T10:00:31.739Z,-0.23
2022-11-21T10:03:04.642Z,-0.24
2022-11-21T10:05:43.295Z,-0.27
2022-11-21T10:08:23.310Z,-0.29
2022-11-21T10:11:09.170Z,-0.29
2022-11-21T10:13:57.599Z,-0.19
2022-11-21T10:16:42.217Z,-0.12
2022-11-21T10:19:43.515Z,-0.06
2022-11-21T10:22:32.544Z,0.04
2022-11-21T10:25:13.805Z,0.11
2022-11-21T10:27:53.035Z,0.15
2022-11-21T10:30:25.411Z,0.14
2022-11-21T10:33:00.445Z,0.11
2022-11-21T10:35:36.254Z,0.10
2022-11-21T10:38:20.758Z,0.11
2022-11-21T10:40:56.227Z,0.09
2022-11-21T10:43:53.454Z,0.06
2022-11-21T10:46:25.728Z,0.04
2022-11-21T10:49:00.781Z,0.00
2022-11-21T10:51:43.688Z,-0.04
2022-11-21T10:54:34.414Z,-0.09
2022-11-21T10:57:14.260Z,-0.12
2022-11-21T11:00:01.207Z,-0.17
2022-11-21T11:02:33.092Z,-0.20
2022-11-21T11:05:28.342Z,-0.12
2022-11-21T11:08:06.532Z,-0.08
2022-11-21T11:10:40.570Z,-0.04
2022-11-21T11:13:51.949Z,0.05
2022-11-21T11:16:25.562Z,0.12
2022-11-21T11:19:03.359Z,0.14
2022-11-21T11:21:45.715Z,0.14
2022-11-21T11:24:29.356Z,0.13
2022-11-21T11:27:03.547Z,0.11
2022-11-21T11:29:50.610Z,0.11
2022-11-21T11:32:23.803Z,0.11
2022-11-21T11:35:01.329Z,0.09
2022-11-21T11:37:41.016Z,0.07
2022-11-21T11:40:27.161Z,0.04
2022-11-21T11:43:49.482Z,0.04
2022-11-21T11:46:56.696Z,-0.00
2022-11-21T11:49:59.281Z,-0.04
2022-11-21T11:52:34.677Z,-0.02
2022-11-21T11:55:15.671Z,0.08
2022-11-21T11:57:49.428Z,0.12
2022-11-21T12:00:31.992Z,0.15
2022-11-21T12:03:09.921Z,0.22
2022-11-21T12:05:55.372Z,0.25
2022-11-21T12:08:43.862Z,0.30
2022-11-21T12:11:52.497Z,0.32
2022-11-21T12:14:57.665Z,0.33
2022-11-21T12:17:35.207Z,0.30
2022-11-21T12:20:17.924Z,0.32
2022-11-21T12:22:53.830Z,0.32
2022-11-21T12:25:30.170Z,0.30
2022-11-21T12:28:03.566Z,0.29
2022-11-21T12:30:58.007Z,0.27
2022-11-21T12:33:32.020Z,0.24
2022-11-21T12:36:18.923Z,0.21
2022-11-21T12:39:36.413Z,0.23
2022-11-21T12:42:34.131Z,0.33
2022-11-21T12:45:24.616Z,0.33
2022-11-21T12:48:30.950Z,0.36
2022-11-21T12:51:53.676Z,0.41
2022-11-21T12:54:56.591Z,0.45
2022-11-21T12:57:41.783Z,0.46
2022-11-21T13:00:22.894Z,0.44
2022-11-21T13:03:24.505Z,0.46
2022-11-21T13:05:59.309Z,0.44
2022-11-21T13:08:33.165Z,0.43
2022-11-21T13:11:29.341Z,0.41
2022-11-21T13:14:09.886Z,0.39
2022-11-21T13:16:48.241Z,0.34
2022-11-21T13:19:25.862Z,0.29
2022-11-21T13:21:58.502Z,0.25
2022-11-21T13:24:58.447Z,0.30
2022-11-21T13:27:38.179Z,0.31
2022-11-21T13:30:33.500Z,0.31
2022-11-21T13:33:25.417Z,0.39
2022-11-21T13:36:00.697Z,0.44
2022-11-21T13:38:33.200Z,0.49
2022-11-21T13:41:22.699Z,0.49
2022-11-21T13:44:38.745Z,0.49
2022-11-21T13:47:32.904Z,0.48
2022-11-21T13:50:10.530Z,0.45
2022-11-21T13:52:50.784Z,0.44
2022-11-21T13:55:42.713Z,0.42
2022-11-21T13:58:29.712Z,0.37
2022-11-21T14:01:19.336Z,0.34
2022-11-21T14:04:27.447Z,0.34
2022-11-21T14:07:23.093Z,0.41
2022-11-21T14:09:56.843Z,0.41
2022-11-21T14:12:35.362Z,0.42
2022-11-21T14:15:23.118Z,0.45
2022-11-21T14:17:57.770Z,0.47
2022-11-21T14:20:32.483Z,0.47
2022-11-21T14:23:06.486Z,0.45
2022-11-21T14:25:48.098Z,0.45
2022-11-21T14:28:25.466Z,0.45
2022-11-21T14:31:02.198Z,0.47
2022-11-21T14:33:36.521Z,0.45
2022-11-21T14:36:13.285Z,0.41
2022-11-21T14:38:53.835Z,0.36
2022-11-21T14:41:36.128Z,0.33
2022-11-21T14:44:16.643Z,0.30
2022-11-21T14:46:49.532Z,0.30
2022-11-21T14:49:30.358Z,0.36
2022-11-21T14:52:13.704Z,0.38
2022-11-21T14:55:29.069Z,0.41
2022-11-21T14:57:45.844Z,0.46
2022-11-21T15:00:58.109Z,0.50
2022-11-21T15:03:22.018Z,0.52
2022-11-21T15:06:05.332Z,0.51
2022-11-21T15:11:39.750Z,0.52
2022-11-21T15:14:23.486Z,0.53
2022-11-21T15:16:57.702Z,0.53
2022-11-21T15:19:32.638Z,0.49
2022-11-21T15:22:05.550Z,0.47
2022-11-21T15:24:43.473Z,0.46
2022-11-21T15:27:34.077Z,0.44
2022-11-21T15:30:29.184Z,0.45
2022-11-21T15:33:12.438Z,0.54
2022-11-21T15:35:47.802Z,0.57
2022-11-21T15:38:24.241Z,0.59
2022-11-21T15:41:31.691Z,0.62
2022-11-21T15:44:23.829Z,0.68
2022-11-21T15:46:55.943Z,0.73
2022-11-21T15:49:34.852Z,0.74
2022-11-21T15:52:13.745Z,0.75
2022-11-21T15:54:47.147Z,0.75
2022-11-21T15:59:53.274Z,0.75
2022-11-21T16:02:25.183Z,0.75
2022-11-21T16:04:57.128Z,0.74
2022-11-21T16:07:29.450Z,0.73
2022-11-21T16:10:01.358Z,0.72
2022-11-21T16:12:33.296Z,0.70
2022-11-21T16:15:05.475Z,0.70
2022-11-21T16:17:39.472Z,0.78
2022-11-21T16:20:13.717Z,0.81
2022-11-21T16:22:47.668Z,0.83
2022-11-21T16:25:20.533Z,0.86
2022-11-21T16:27:52.446Z,0.92
2022-11-21T16:30:24.640Z,0.96
2022-11-21T16:32:56.755Z,0.96
2022-11-21T16:35:28.721Z,0.95
2022-11-21T16:38:00.606Z,0.95
2022-11-21T16:40:32.570Z,0.95
2022-11-21T16:43:11.548Z,0.94
2022-11-21T16:45:43.516Z,0.94
2022-11-21T16:48:15.423Z,0.92
2022-11-21T16:50:47.543Z,0.89
2022-11-21T16:53:19.604Z,0.85
2022-11-21T16:56:00.712Z,0.84
2022-11-21T16:58:33.083Z,0.90
2022-11-21T17:01:12.468Z,0.90
2022-11-21T17:03:47.299Z,0.93
2022-11-21T17:06:19.215Z,0.97
2022-11-21T17:08:51.616Z,0.99
2022-11-21T17:11:26.500Z,1.01
2022-11-21T17:14:00.257Z,1.01
2022-11-21T17:16:33.185Z,1.03
2022-11-21T17:19:05.796Z,1.05
2022-11-21T17:21:37.698Z,1.07
2022-11-21T17:24:09.826Z,1.08
2022-11-21T17:26:41.753Z,1.07
2022-11-21T17:29:13.694Z,1.06
2022-11-21T17:31:46.931Z,1.04
2022-11-21T17:34:19.333Z,1.04
2022-11-21T17:36:51.603Z,1.03
2022-11-21T17:39:29.399Z,1.03
2022-11-21T17:42:02.033Z,1.08
2022-11-21T17:44:34.023Z,1.09
2022-11-21T17:47:06.268Z,1.12
2022-11-21T17:49:38.589Z,1.13
2022-11-21T17:52:10.551Z,1.18
2022-11-21T17:54:42.469Z,1.23
2022-11-21T17:57:14.459Z,1.24
2022-11-21T17:59:47.063Z,1.25
2022-11-21T18:02:21.078Z,1.24
2022-11-21T18:04:53.929Z,1.21
2022-11-21T18:07:25.903Z,1.18
2022-11-21T18:10:14.287Z,1.19
2022-11-21T18:12:51.511Z,1.17
2022-11-21T18:15:23.926Z,1.15
2022-11-21T18:17:55.922Z,1.16
2022-11-21T18:20:27.954Z,1.25
2022-11-21T18:22:59.944Z,1.27
2022-11-21T18:25:31.986Z,1.29
2022-11-21T18:28:03.972Z,1.33
2022-11-21T18:30:35.884Z,1.38
2022-11-21T18:33:07.848Z,1.42
2022-11-21T18:35:39.915Z,1.43
2022-11-21T18:38:40.285Z,1.45
2022-11-21T18:41:08.930Z,1.43
2022-11-21T18:43:41.476Z,1.39
2022-11-21T18:46:15.032Z,1.38
2022-11-21T18:49:02.412Z,1.37
2022-11-21T18:51:37.138Z,1.37
2022-11-21T18:54:10.557Z,1.36
2022-11-21T18:56:42.880Z,1.35
2022-11-21T18:59:14.819Z,1.35
2022-11-21T19:01:47.204Z,1.42
2022-11-21T19:04:19.666Z,1.44
2022-11-21T19:06:51.527Z,1.46
2022-11-21T19:09:26.840Z,1.49
2022-11-21T19:12:01.449Z,1.53
2022-11-21T19:14:33.714Z,1.56
2022-11-21T19:17:05.679Z,1.55
2022-11-21T19:19:37.615Z,1.54
2022-11-21T19:22:09.811Z,1.54
2022-11-21T19:24:41.825Z,1.54
2022-11-21T19:27:13.844Z,1.54
2022-11-21T19:29:45.828Z,1.52
2022-11-21T19:32:17.741Z,1.50
2022-11-21T19:34:49.756Z,1.48
2022-11-21T19:37:21.723Z,1.47
2022-11-21T19:39:53.704Z,1.47
2022-11-21T19:42:25.647Z,1.55
2022-11-21T19:44:58.403Z,1.57
2022-11-21T19:47:30.698Z,1.59
2022-11-21T19:50:02.816Z,1.63
2022-11-21T19:52:34.936Z,1.68
2022-11-21T19:55:09.629Z,1.70
2022-11-21T19:57:41.551Z,1.70
2022-11-21T20:00:15.402Z,1.71
2022-11-21T20:02:47.266Z,1.71
2022-11-21T20:05:19.690Z,1.71
2022-11-21T20:07:51.615Z,1.70
2022-11-21T20:10:24.001Z,1.68
2022-11-21T20:12:56.017Z,1.65
2022-11-21T20:15:28.265Z,1.64
2022-11-21T20:18:00.149Z,1.62
2022-11-21T20:20:32.060Z,1.62
2022-11-21T20:23:04.207Z,1.70
2022-11-21T20:25:36.371Z,1.73
2022-11-21T20:28:11.635Z,1.75
2022-11-21T20:30:43.832Z,1.75
2022-11-21T20:33:15.844Z,1.79
2022-11-21T20:35:47.783Z,1.83
2022-11-21T20:38:24.189Z,1.83
2022-11-21T20:40:56.675Z,1.83
2022-11-21T20:43:52.633Z,1.82
2022-11-21T20:46:21.295Z,1.81
2022-11-21T20:48:53.533Z,1.79
2022-11-21T20:54:17.888Z,1.73
2022-11-21T20:56:49.834Z,1.69
2022-11-21T20:59:21.738Z,1.67
2022-11-21T21:01:53.709Z,1.67
2022-11-21T21:04:25.717Z,1.74
2022-11-21T21:06:57.654Z,1.76
2022-11-21T21:09:30.185Z,1.76
2022-11-21T21:12:02.252Z,1.75
2022-11-21T21:14:34.470Z,1.78
2022-11-21T21:17:06.429Z,1.82
2022-11-21T21:19:38.319Z,1.83
2022-11-21T21:22:10.330Z,1.85
2022-11-21T21:24:42.270Z,1.85
2022-11-21T21:27:14.141Z,1.86
2022-11-21T21:29:46.067Z,1.85
2022-11-21T21:32:18.055Z,1.84
2022-11-21T21:34:50.020Z,1.83
2022-11-21T21:37:22.085Z,1.81
2022-11-21T21:39:54.023Z,1.80
2022-11-21T21:42:25.894Z,1.80
2022-11-21T21:44:57.818Z,1.89
2022-11-21T21:47:30.021Z,1.93
2022-11-21T21:50:01.904Z,1.93
2022-11-21T21:52:33.839Z,1.95
2022-11-21T21:55:06.386Z,1.99
2022-11-21T21:57:43.551Z,2.03
2022-11-21T22:00:18.850Z,2.01
2022-11-21T22:02:50.807Z,2.04
2022-11-21T22:05:22.640Z,2.07
2022-11-21T22:07:54.656Z,2.07
2022-11-21T22:10:40.944Z,2.06
2022-11-21T22:13:16.126Z,2.04
2022-11-21T22:15:48.032Z,2.03
2022-11-21T22:18:19.918Z,2.00
2022-11-21T22:20:51.831Z,1.96
2022-11-21T22:23:24.588Z,1.93
2022-11-21T22:25:59.369Z,1.99
2022-11-21T22:28:31.671Z,2.01
2022-11-21T22:31:03.602Z,2.01
2022-11-21T22:33:37.206Z,2.03
2022-11-21T22:36:13.825Z,2.05
2022-11-21T22:38:46.609Z,2.05
2022-11-21T22:41:20.698Z,2.05
2022-11-21T22:43:54.822Z,2.05
2022-11-21T22:46:28.400Z,2.06
2022-11-21T22:49:00.686Z,2.07
2022-11-21T22:51:32.825Z,2.08
2022-11-21T22:54:04.902Z,2.06
2022-11-21T22:56:37.291Z,2.04
2022-11-21T22:59:09.228Z,2.02
2022-11-21T23:01:41.591Z,2.02
2022-11-21T23:04:17.696Z,2.10
2022-11-21T23:06:50.084Z,2.11
2022-11-21T23:09:22.100Z,2.12
2022-11-21T23:11:53.987Z,2.14
2022-11-21T23:14:26.226Z,2.18
2022-11-21T23:16:58.249Z,2.23
2022-11-21T23:19:30.399Z,2.24
2022-11-21T23:22:02.634Z,2.25
2022-11-21T23:24:35.034Z,2.26
2022-11-21T23:27:07.279Z,2.26
2022-11-21T23:29:39.521Z,2.26
2022-11-21T23:32:11.587Z,2.24
2022-11-21T23:34:43.985Z,2.21
2022-11-21T23:37:15.899Z,2.19
2022-11-21T23:39:47.836Z,2.16
2022-11-21T23:42:19.722Z,2.15
2022-11-21T23:44:51.711Z,2.21
2022-11-21T23:47:23.649Z,2.23
2022-11-21T23:49:55.870Z,2.24
2022-11-21T23:52:27.679Z,2.27
2022-11-21T23:54:59.747Z,2.30
2022-11-21T23:57:31.684Z,2.33
